Terminal Aerodrome Forecast
Issued by NWS

Home | Current Version | Previous Version | Graphics & Text | Print | Product List | Glossary On
Versions: 1 2 3 4 5 6 7 8 9 10 11 12 13 14 15 16 17 18 19
000
FTUS42 KMHX 220500 RRA
TAFOAJ
TAF
KOAJ 220548Z 2206/2306 VRB03KT 4SM BR VCSH BKN003
     FM221300 14005KT P6SM VCSH SCT015 BKN030
     FM221600 15008KT P6SM VCTS SCT015 BKN035CB
     FM230000 18003KT P6SM SCT025 OVC120
      AMD LTD TO CLD VIS AND WIND=

USA.gov is the U.S. government's official web portal to all federal, state and local government web resources and services.